sensor_id;sensor_type;location;lat;lon;timestamp;temperature;humidity
58469;DHT22;44257;44.804;10.220;2023-01-01T00:01:13;9.20;99.90
58469;DHT22;44257;44.804;10.220;2023-01-01T00:03:40;9.30;99.90
58469;DHT22;44257;44.804;10.220;2023-01-01T00:06:11;9.30;99.90
58469;DHT22;44257;44.804;10.220;2023-01-01T00:08:38;9.30;99.90
58469;DHT22;44257;44.804;10.220;2023-01-01T00:11:05;9.20;99.90
58469;DHT22;44257;44.804;10.220;2023-01-01T00:13:32;9.20;99.90
58469;DHT22;44257;44.804;10.220;2023-01-01T00:16:05;9.20;99.90
58469;DHT22;44257;44.804;10.220;2023-01-01T00:18:31;9.10;99.90
58469;DHT22;44257;44.804;10.220;2023-01-01T00:21:05;9.20;99.90
58469;DHT22;44257;44.804;10.220;2023-01-01T00:23:33;9.20;99.90
58469;DHT22;44257;44.804;10.220;2023-01-01T00:25:59;9.10;99.90
58469;DHT22;44257;44.804;10.220;2023-01-01T00:28:25;9.00;99.90
58469;DHT22;44257;44.804;10.220;2023-01-01T00:30:51;9.00;99.90
58469;DHT22;44257;44.804;10.220;2023-01-01T00:33:17;9.00;99.90
58469;DHT22;44257;44.804;10.220;2023-01-01T00:35:43;9.10;99.90
58469;DHT22;44257;44.804;10.220;2023-01-01T00:38:09;9.10;99.90
58469;DHT22;44257;44.804;10.220;2023-01-01T00:40:35;9.10;99.90
58469;DHT22;44257;44.804;10.220;2023-01-01T00:43:01;9.10;99.90
58469;DHT22;44257;44.804;10.220;2023-01-01T00:45:26;9.10;99.90
58469;DHT22;44257;44.804;10.220;2023-01-01T00:47:53;9.10;99.90
58469;DHT22;44257;44.804;10.220;2023-01-01T00:50:20;9.10;99.90
58469;DHT22;44257;44.804;10.220;2023-01-01T00:52:46;9.10;99.90
58469;DHT22;44257;44.804;10.220;2023-01-01T00:55:14;9.10;99.90
58469;DHT22;44257;44.804;10.220;2023-01-01T00:57:40;9.00;99.90
58469;DHT22;44257;44.804;10.220;2023-01-01T01:00:06;9.10;99.90
58469;DHT22;44257;44.804;10.220;2023-01-01T01:02:32;9.00;99.90
58469;DHT22;44257;44.804;10.220;2023-01-01T01:04:58;9.00;99.90
58469;DHT22;44257;44.804;10.220;2023-01-01T01:07:25;9.00;99.90
58469;DHT22;44257;44.804;10.220;2023-01-01T01:09:51;9.00;99.90
58469;DHT22;44257;44.804;10.220;2023-01-01T01:12:18;9.00;99.90
58469;DHT22;44257;44.804;10.220;2023-01-01T01:14:43;9.00;99.90
58469;DHT22;44257;44.804;10.220;2023-01-01T01:17:09;9.00;99.90
58469;DHT22;44257;44.804;10.220;2023-01-01T01:19:35;8.90;99.90
58469;DHT22;44257;44.804;10.220;2023-01-01T01:22:01;9.00;99.90
58469;DHT22;44257;44.804;10.220;2023-01-01T01:24:28;9.00;99.90
58469;DHT22;44257;44.804;10.220;2023-01-01T01:26:53;9.10;99.90
58469;DHT22;44257;44.804;10.220;2023-01-01T01:29:19;9.10;99.90
58469;DHT22;44257;44.804;10.220;2023-01-01T01:31:45;9.10;99.90
58469;DHT22;44257;44.804;10.220;2023-01-01T01:34:11;9.20;99.90
58469;DHT22;44257;44.804;10.220;2023-01-01T01:36:37;9.10;99.90
58469;DHT22;44257;44.804;10.220;2023-01-01T01:39:02;9.10;99.90
58469;DHT22;44257;44.804;10.220;2023-01-01T01:41:28;9.10;99.90
58469;DHT22;44257;44.804;10.220;2023-01-01T01:43:56;9.10;99.90
58469;DHT22;44257;44.804;10.220;2023-01-01T01:46:29;9.00;99.90
58469;DHT22;44257;44.804;10.220;2023-01-01T01:49:01;9.00;99.90
58469;DHT22;44257;44.804;10.220;2023-01-01T01:51:35;8.90;99.90
58469;DHT22;44257;44.804;10.220;2023-01-01T01:54:06;8.90;99.90
58469;DHT22;44257;44.804;10.220;2023-01-01T01:56:46;8.90;99.90
58469;DHT22;44257;44.804;10.220;2023-01-01T01:59:13;8.90;99.90
58469;DHT22;44257;44.804;10.220;2023-01-01T02:01:40;8.90;99.90
58469;DHT22;44257;44.804;10.220;2023-01-01T02:04:06;8.90;99.90
58469;DHT22;44257;44.804;10.220;2023-01-01T02:06:34;8.90;99.90
58469;DHT22;44257;44.804;10.220;2023-01-01T02:09:04;9.00;99.90
58469;DHT22;44257;44.804;10.220;2023-01-01T02:11:31;9.00;99.90
58469;DHT22;44257;44.804;10.220;2023-01-01T02:13:58;9.00;99.90
58469;DHT22;44257;44.804;10.220;2023-01-01T02:22:10;9.10;99.90
58469;DHT22;44257;44.804;10.220;2023-01-01T02:30:09;9.00;99.90
58469;DHT22;44257;44.804;10.220;2023-01-01T02:32:44;9.10;99.90
58469;DHT22;44257;44.804;10.220;2023-01-01T02:35:22;9.10;99.90
58469;DHT22;44257;44.804;10.220;2023-01-01T02:38:06;9.00;99.90
58469;DHT22;44257;44.804;10.220;2023-01-01T02:40:43;9.00;99.90
58469;DHT22;44257;44.804;10.220;2023-01-01T02:43:10;9.00;99.90
58469;DHT22;44257;44.804;10.220;2023-01-01T02:45:36;9.00;99.90
58469;DHT22;44257;44.804;10.220;2023-01-01T02:50:52;9.00;99.90
58469;DHT22;44257;44.804;10.220;2023-01-01T02:53:32;9.00;99.90
58469;DHT22;44257;44.804;10.220;2023-01-01T02:58:52;9.00;99.90
58469;DHT22;44257;44.804;10.220;2023-01-01T03:04:56;9.00;99.90
58469;DHT22;44257;44.804;10.220;2023-01-01T03:10:14;9.00;99.90
58469;DHT22;44257;44.804;10.220;2023-01-01T03:15:51;8.90;99.90
58469;DHT22;44257;44.804;10.220;2023-01-01T03:18:30;8.90;99.90
58469;DHT22;44257;44.804;10.220;2023-01-01T03:20:59;8.90;99.90
58469;DHT22;44257;44.804;10.220;2023-01-01T03:23:32;8.90;99.90
58469;DHT22;44257;44.804;10.220;2023-01-01T03:26:09;9.00;99.90
58469;DHT22;44257;44.804;10.220;2023-01-01T03:28:49;8.90;99.90
58469;DHT22;44257;44.804;10.220;2023-01-01T03:31:20;9.00;99.90
58469;DHT22;44257;44.804;10.220;2023-01-01T03:33:52;9.00;99.90
58469;DHT22;44257;44.804;10.220;2023-01-01T03:36:22;9.10;99.90
58469;DHT22;44257;44.804;10.220;2023-01-01T03:38:55;9.10;99.90
58469;DHT22;44257;44.804;10.220;2023-01-01T03:46:40;9.00;99.90
58469;DHT22;44257;44.804;10.220;2023-01-01T03:49:09;9.10;99.90
58469;DHT22;44257;44.804;10.220;2023-01-01T03:56:59;9.00;99.90
58469;DHT22;44257;44.804;10.220;2023-01-01T03:59:37;9.00;99.90
58469;DHT22;44257;44.804;10.220;2023-01-01T04:02:07;9.00;99.90
58469;DHT22;44257;44.804;10.220;2023-01-01T04:04:34;9.00;99.90
58469;DHT22;44257;44.804;10.220;2023-01-01T04:07:00;9.00;99.90
58469;DHT22;44257;44.804;10.220;2023-01-01T04:09:30;9.00;99.90
58469;DHT22;44257;44.804;10.220;2023-01-01T04:11:56;9.10;99.90
58469;DHT22;44257;44.804;10.220;2023-01-01T04:14:37;9.00;99.90
58469;DHT22;44257;44.804;10.220;2023-01-01T04:17:05;9.00;99.90
58469;DHT22;44257;44.804;10.220;2023-01-01T04:19:32;9.00;99.90
58469;DHT22;44257;44.804;10.220;2023-01-01T04:21:58;9.00;99.90
58469;DHT22;44257;44.804;10.220;2023-01-01T04:24:24;9.00;99.90
58469;DHT22;44257;44.804;10.220;2023-01-01T04:26:51;9.00;99.90
58469;DHT22;44257;44.804;10.220;2023-01-01T04:29:18;9.00;99.90
58469;DHT22;44257;44.804;10.220;2023-01-01T04:31:44;9.00;99.90
58469;DHT22;44257;44.804;10.220;2023-01-01T04:34:10;9.00;99.90
58469;DHT22;44257;44.804;10.220;2023-01-01T04:36:36;9.10;99.90
58469;DHT22;44257;44.804;10.220;2023-01-01T04:39:03;9.10;99.90
58469;DHT22;44257;44.804;10.220;2023-01-01T04:41:29;9.10;99.90
58469;DHT22;44257;44.804;10.220;2023-01-01T04:43:55;9.00;99.90
58469;DHT22;44257;44.804;10.220;2023-01-01T04:46:22;9.00;99.90
58469;DHT22;44257;44.804;10.220;2023-01-01T04:48:48;9.00;99.90
58469;DHT22;44257;44.804;10.220;2023-01-01T04:51:16;9.00;99.90
58469;DHT22;44257;44.804;10.220;2023-01-01T04:53:42;9.00;99.90
58469;DHT22;44257;44.804;10.220;2023-01-01T04:56:15;9.00;99.90
58469;DHT22;44257;44.804;10.220;2023-01-01T04:58:42;9.00;99.90
58469;DHT22;44257;44.804;10.220;2023-01-01T05:01:23;9.00;99.90
58469;DHT22;44257;44.804;10.220;2023-01-01T05:03:49;9.00;99.90
58469;DHT22;44257;44.804;10.220;2023-01-01T05:06:16;8.90;99.90
58469;DHT22;44257;44.804;10.220;2023-01-01T05:08:44;9.00;99.90
58469;DHT22;44257;44.804;10.220;2023-01-01T05:11:11;9.00;99.90
58469;DHT22;44257;44.804;10.220;2023-01-01T05:13:39;9.00;99.90
58469;DHT22;44257;44.804;10.220;2023-01-01T05:16:07;9.00;99.90
58469;DHT22;44257;44.804;10.220;2023-01-01T05:18:34;9.00;99.90
58469;DHT22;44257;44.804;10.220;2023-01-01T05:21:06;9.00;99.90
58469;DHT22;44257;44.804;10.220;2023-01-01T05:23:33;9.00;99.90
58469;DHT22;44257;44.804;10.220;2023-01-01T05:25:59;9.00;99.90
58469;DHT22;44257;44.804;10.220;2023-01-01T05:28:25;9.00;99.90
58469;DHT22;44257;44.804;10.220;2023-01-01T05:30:52;9.00;99.90
58469;DHT22;44257;44.804;10.220;2023-01-01T05:33:19;9.00;99.90
58469;DHT22;44257;44.804;10.220;2023-01-01T05:35:45;8.90;99.90
58469;DHT22;44257;44.804;10.220;2023-01-01T05:38:17;8.90;99.90
58469;DHT22;44257;44.804;10.220;2023-01-01T05:40:42;9.00;99.90
58469;DHT22;44257;44.804;10.220;2023-01-01T05:43:08;9.00;99.90
58469;DHT22;44257;44.804;10.220;2023-01-01T05:45:34;8.90;99.90
58469;DHT22;44257;44.804;10.220;2023-01-01T05:48:00;8.90;99.90
58469;DHT22;44257;44.804;10.220;2023-01-01T05:50:26;8.90;99.90
58469;DHT22;44257;44.804;10.220;2023-01-01T05:52:51;9.00;99.90
58469;DHT22;44257;44.804;10.220;2023-01-01T05:55:17;9.10;99.90
58469;DHT22;44257;44.804;10.220;2023-01-01T05:57:44;9.00;99.90
58469;DHT22;44257;44.804;10.220;2023-01-01T06:00:10;8.90;99.90
58469;DHT22;44257;44.804;10.220;2023-01-01T06:02:36;8.80;99.90
58469;DHT22;44257;44.804;10.220;2023-01-01T06:05:04;8.70;99.90
58469;DHT22;44257;44.804;10.220;2023-01-01T06:07:30;8.60;99.90
58469;DHT22;44257;44.804;10.220;2023-01-01T06:09:55;8.60;99.90
58469;DHT22;44257;44.804;10.220;2023-01-01T06:12:21;8.60;99.90
58469;DHT22;44257;44.804;10.220;2023-01-01T06:14:47;8.50;99.90
58469;DHT22;44257;44.804;10.220;2023-01-01T06:17:13;8.50;99.90
58469;DHT22;44257;44.804;10.220;2023-01-01T06:19:39;8.50;99.90
58469;DHT22;44257;44.804;10.220;2023-01-01T06:22:04;8.50;99.90
58469;DHT22;44257;44.804;10.220;2023-01-01T06:24:31;8.60;99.90
58469;DHT22;44257;44.804;10.220;2023-01-01T06:26:57;8.60;99.90
58469;DHT22;44257;44.804;10.220;2023-01-01T06:29:23;8.60;99.90
58469;DHT22;44257;44.804;10.220;2023-01-01T06:31:49;8.60;99.90
58469;DHT22;44257;44.804;10.220;2023-01-01T06:34:15;8.60;99.90
58469;DHT22;44257;44.804;10.220;2023-01-01T06:36:40;8.70;99.90
58469;DHT22;44257;44.804;10.220;2023-01-01T06:39:06;8.70;99.90
58469;DHT22;44257;44.804;10.220;2023-01-01T06:41:33;8.70;99.90
58469;DHT22;44257;44.804;10.220;2023-01-01T06:43:59;8.70;99.90
58469;DHT22;44257;44.804;10.220;2023-01-01T06:46:31;8.70;99.90
58469;DHT22;44257;44.804;10.220;2023-01-01T06:49:03;8.70;99.90
58469;DHT22;44257;44.804;10.220;2023-01-01T06:51:32;8.70;99.90
58469;DHT22;44257;44.804;10.220;2023-01-01T06:54:00;8.80;99.90
58469;DHT22;44257;44.804;10.220;2023-01-01T06:56:26;8.80;99.90
58469;DHT22;44257;44.804;10.220;2023-01-01T06:58:52;8.80;99.90
58469;DHT22;44257;44.804;10.220;2023-01-01T07:01:20;8.80;99.90
58469;DHT22;44257;44.804;10.220;2023-01-01T07:04:00;8.80;99.90
58469;DHT22;44257;44.804;10.220;2023-01-01T07:06:28;8.80;99.90
58469;DHT22;44257;44.804;10.220;2023-01-01T07:08:54;8.80;99.90
58469;DHT22;44257;44.804;10.220;2023-01-01T07:11:21;8.90;99.90
58469;DHT22;44257;44.804;10.220;2023-01-01T07:13:47;8.90;99.90
58469;DHT22;44257;44.804;10.220;2023-01-01T07:16:13;8.90;99.90
58469;DHT22;44257;44.804;10.220;2023-01-01T07:18:39;8.90;99.90
58469;DHT22;44257;44.804;10.220;2023-01-01T07:21:19;9.00;99.90
58469;DHT22;44257;44.804;10.220;2023-01-01T07:23:46;9.10;99.90
58469;DHT22;44257;44.804;10.220;2023-01-01T07:26:12;9.10;99.90
58469;DHT22;44257;44.804;10.220;2023-01-01T07:28:37;9.10;99.90
58469;DHT22;44257;44.804;10.220;2023-01-01T07:31:03;9.20;99.90
58469;DHT22;44257;44.804;10.220;2023-01-01T07:33:29;9.30;99.90
58469;DHT22;44257;44.804;10.220;2023-01-01T07:35:55;9.40;99.90
58469;DHT22;44257;44.804;10.220;2023-01-01T07:38:21;9.40;99.90
58469;DHT22;44257;44.804;10.220;2023-01-01T07:40:47;9.50;99.90
58469;DHT22;44257;44.804;10.220;2023-01-01T07:43:13;9.50;99.90
58469;DHT22;44257;44.804;10.220;2023-01-01T07:45:39;9.50;99.90
58469;DHT22;44257;44.804;10.220;2023-01-01T07:48:06;9.40;99.90
58469;DHT22;44257;44.804;10.220;2023-01-01T07:50:33;9.40;99.90
58469;DHT22;44257;44.804;10.220;2023-01-01T07:53:00;9.40;99.90
58469;DHT22;44257;44.804;10.220;2023-01-01T07:55:26;9.40;99.90
58469;DHT22;44257;44.804;10.220;2023-01-01T07:57:52;9.30;99.90
58469;DHT22;44257;44.804;10.220;2023-01-01T08:00:19;9.30;99.90
58469;DHT22;44257;44.804;10.220;2023-01-01T08:02:46;9.30;99.90
58469;DHT22;44257;44.804;10.220;2023-01-01T08:05:12;9.40;99.90
58469;DHT22;44257;44.804;10.220;2023-01-01T08:07:38;9.40;99.90
58469;DHT22;44257;44.804;10.220;2023-01-01T08:10:05;9.40;99.90
58469;DHT22;44257;44.804;10.220;2023-01-01T08:12:31;9.40;99.90
58469;DHT22;44257;44.804;10.220;2023-01-01T08:14:57;9.50;99.90
58469;DHT22;44257;44.804;10.220;2023-01-01T08:19:50;9.70;99.90
58469;DHT22;44257;44.804;10.220;2023-01-01T08:22:17;9.70;99.90
58469;DHT22;44257;44.804;10.220;2023-01-01T08:24:43;9.80;99.90
58469;DHT22;44257;44.804;10.220;2023-01-01T08:27:14;9.80;99.90
58469;DHT22;44257;44.804;10.220;2023-01-01T08:29:40;9.90;99.90
58469;DHT22;44257;44.804;10.220;2023-01-01T08:32:07;9.90;99.90
58469;DHT22;44257;44.804;10.220;2023-01-01T08:34:33;10.00;99.90
58469;DHT22;44257;44.804;10.220;2023-01-01T08:36:58;10.00;99.90
58469;DHT22;44257;44.804;10.220;2023-01-01T08:39:25;10.00;99.90
58469;DHT22;44257;44.804;10.220;2023-01-01T08:41:51;10.00;99.90
58469;DHT22;44257;44.804;10.220;2023-01-01T08:44:17;10.10;99.90
58469;DHT22;44257;44.804;10.220;2023-01-01T08:46:43;10.00;99.90
58469;DHT22;44257;44.804;10.220;2023-01-01T08:49:09;10.00;99.90
58469;DHT22;44257;44.804;10.220;2023-01-01T08:51:35;10.00;99.90
58469;DHT22;44257;44.804;10.220;2023-01-01T08:54:02;10.00;99.90
58469;DHT22;44257;44.804;10.220;2023-01-01T08:56:28;10.00;99.90
58469;DHT22;44257;44.804;10.220;2023-01-01T08:58:53;9.90;99.90
58469;DHT22;44257;44.804;10.220;2023-01-01T09:01:19;10.00;99.90
58469;DHT22;44257;44.804;10.220;2023-01-01T09:03:50;10.00;99.90
58469;DHT22;44257;44.804;10.220;2023-01-01T09:06:16;10.00;99.90
58469;DHT22;44257;44.804;10.220;2023-01-01T09:08:43;10.10;99.90
58469;DHT22;44257;44.804;10.220;2023-01-01T09:11:26;10.10;99.90
58469;DHT22;44257;44.804;10.220;2023-01-01T09:13:53;10.10;99.90
58469;DHT22;44257;44.804;10.220;2023-01-01T09:16:20;10.10;99.90
58469;DHT22;44257;44.804;10.220;2023-01-01T09:18:46;10.10;99.90
58469;DHT22;44257;44.804;10.220;2023-01-01T09:21:12;10.10;99.90
58469;DHT22;44257;44.804;10.220;2023-01-01T09:23:39;10.20;99.90
58469;DHT22;44257;44.804;10.220;2023-01-01T09:26:06;10.20;99.90
58469;DHT22;44257;44.804;10.220;2023-01-01T09:28:34;10.20;99.90
58469;DHT22;44257;44.804;10.220;2023-01-01T09:31:00;10.30;99.90
58469;DHT22;44257;44.804;10.220;2023-01-01T09:33:27;10.40;99.90
58469;DHT22;44257;44.804;10.220;2023-01-01T09:35:52;10.50;99.90
58469;DHT22;44257;44.804;10.220;2023-01-01T09:38:19;10.60;99.90
58469;DHT22;44257;44.804;10.220;2023-01-01T09:44:02;10.70;99.90
58469;DHT22;44257;44.804;10.220;2023-01-01T09:46:31;10.70;99.90
58469;DHT22;44257;44.804;10.220;2023-01-01T09:49:00;10.70;99.90
58469;DHT22;44257;44.804;10.220;2023-01-01T09:51:30;10.70;99.90
58469;DHT22;44257;44.804;10.220;2023-01-01T09:54:04;10.80;99.90
58469;DHT22;44257;44.804;10.220;2023-01-01T09:56:33;10.80;99.90
58469;DHT22;44257;44.804;10.220;2023-01-01T09:59:00;10.90;99.90
58469;DHT22;44257;44.804;10.220;2023-01-01T10:15:28;10.90;99.90
58469;DHT22;44257;44.804;10.220;2023-01-01T10:18:03;10.90;99.90
58469;DHT22;44257;44.804;10.220;2023-01-01T10:20:38;10.90;99.90
58469;DHT22;44257;44.804;10.220;2023-01-01T10:26:18;11.00;99.90
58469;DHT22;44257;44.804;10.220;2023-01-01T10:31:39;10.90;99.90
58469;DHT22;44257;44.804;10.220;2023-01-01T10:34:21;10.90;99.90
58469;DHT22;44257;44.804;10.220;2023-01-01T10:36:51;10.90;99.90
58469;DHT22;44257;44.804;10.220;2023-01-01T10:39:18;10.90;99.90
58469;DHT22;44257;44.804;10.220;2023-01-01T10:41:45;10.80;99.90
58469;DHT22;44257;44.804;10.220;2023-01-01T10:44:11;10.90;99.90
58469;DHT22;44257;44.804;10.220;2023-01-01T10:46:41;10.90;99.90
58469;DHT22;44257;44.804;10.220;2023-01-01T10:49:10;11.00;99.90
58469;DHT22;44257;44.804;10.220;2023-01-01T10:51:56;11.10;99.90
58469;DHT22;44257;44.804;10.220;2023-01-01T10:54:36;11.10;99.90
58469;DHT22;44257;44.804;10.220;2023-01-01T11:02:34;11.00;99.90
58469;DHT22;44257;44.804;10.220;2023-01-01T11:05:17;11.00;99.90
58469;DHT22;44257;44.804;10.220;2023-01-01T11:07:43;10.90;99.90
58469;DHT22;44257;44.804;10.220;2023-01-01T11:10:36;10.90;99.90
58469;DHT22;44257;44.804;10.220;2023-01-01T11:13:01;10.80;99.90
58469;DHT22;44257;44.804;10.220;2023-01-01T11:15:37;10.80;99.90
58469;DHT22;44257;44.804;10.220;2023-01-01T11:18:15;10.80;99.90
58469;DHT22;44257;44.804;10.220;2023-01-01T11:20:42;10.80;99.90
58469;DHT22;44257;44.804;10.220;2023-01-01T11:23:31;10.90;99.90
58469;DHT22;44257;44.804;10.220;2023-01-01T11:28:25;11.00;99.90
58469;DHT22;44257;44.804;10.220;2023-01-01T11:31:11;11.00;99.90
58469;DHT22;44257;44.804;10.220;2023-01-01T11:33:48;11.10;99.90
58469;DHT22;44257;44.804;10.220;2023-01-01T11:36:44;11.10;99.90
58469;DHT22;44257;44.804;10.220;2023-01-01T11:39:22;11.10;99.90
58469;DHT22;44257;44.804;10.220;2023-01-01T11:41:54;11.00;99.90
58469;DHT22;44257;44.804;10.220;2023-01-01T11:44:39;11.00;99.90
58469;DHT22;44257;44.804;10.220;2023-01-01T11:47:20;10.90;99.90
58469;DHT22;44257;44.804;10.220;2023-01-01T11:52:47;10.90;99.90
58469;DHT22;44257;44.804;10.220;2023-01-01T11:55:45;10.80;99.90
58469;DHT22;44257;44.804;10.220;2023-01-01T12:00:35;10.90;99.90
58469;DHT22;44257;44.804;10.220;2023-01-01T12:06:14;10.90;99.90
58469;DHT22;44257;44.804;10.220;2023-01-01T12:08:53;10.90;99.90
58469;DHT22;44257;44.804;10.220;2023-01-01T12:11:29;10.90;99.90
58469;DHT22;44257;44.804;10.220;2023-01-01T12:14:04;10.90;99.90
58469;DHT22;44257;44.804;10.220;2023-01-01T12:16:47;11.00;99.90
58469;DHT22;44257;44.804;10.220;2023-01-01T12:21:54;11.10;99.90
58469;DHT22;44257;44.804;10.220;2023-01-01T12:24:31;11.10;99.90
58469;DHT22;44257;44.804;10.220;2023-01-01T12:43:21;11.20;99.90
58469;DHT22;44257;44.804;10.220;2023-01-01T12:45:59;11.20;99.90
58469;DHT22;44257;44.804;10.220;2023-01-01T12:52:16;11.30;99.90
58469;DHT22;44257;44.804;10.220;2023-01-01T12:59:51;11.20;99.90
58469;DHT22;44257;44.804;10.220;2023-01-01T13:02:22;11.10;99.90
58469;DHT22;44257;44.804;10.220;2023-01-01T13:04:52;11.10;99.90
58469;DHT22;44257;44.804;10.220;2023-01-01T13:07:34;11.00;99.90
58469;DHT22;44257;44.804;10.220;2023-01-01T13:12:51;11.00;99.90
58469;DHT22;44257;44.804;10.220;2023-01-01T13:18:06;11.00;99.90
58469;DHT22;44257;44.804;10.220;2023-01-01T13:20:43;11.00;99.90
58469;DHT22;44257;44.804;10.220;2023-01-01T13:40:03;10.80;99.90
58469;DHT22;44257;44.804;10.220;2023-01-01T13:45:27;10.70;99.90
58469;DHT22;44257;44.804;10.220;2023-01-01T14:03:44;10.60;99.90
58469;DHT22;44257;44.804;10.220;2023-01-01T14:06:18;10.60;99.90
58469;DHT22;44257;44.804;10.220;2023-01-01T14:09:20;10.60;99.90
58469;DHT22;44257;44.804;10.220;2023-01-01T14:11:47;10.60;99.90
58469;DHT22;44257;44.804;10.220;2023-01-01T14:14:24;10.60;99.90
58469;DHT22;44257;44.804;10.220;2023-01-01T14:16:58;10.50;99.90
58469;DHT22;44257;44.804;10.220;2023-01-01T14:19:25;10.50;99.90
58469;DHT22;44257;44.804;10.220;2023-01-01T14:21:52;10.50;99.90
58469;DHT22;44257;44.804;10.220;2023-01-01T14:24:20;10.50;99.90
58469;DHT22;44257;44.804;10.220;2023-01-01T14:26:47;10.50;99.90
58469;DHT22;44257;44.804;10.220;2023-01-01T14:29:25;10.50;99.90
58469;DHT22;44257;44.804;10.220;2023-01-01T14:31:52;10.50;99.90
58469;DHT22;44257;44.804;10.220;2023-01-01T14:34:28;10.50;99.90
58469;DHT22;44257;44.804;10.220;2023-01-01T14:36:56;10.50;99.90
58469;DHT22;44257;44.804;10.220;2023-01-01T14:39:28;10.50;99.90
58469;DHT22;44257;44.804;10.220;2023-01-01T14:44:40;10.50;99.90
58469;DHT22;44257;44.804;10.220;2023-01-01T14:49:46;10.60;99.90
58469;DHT22;44257;44.804;10.220;2023-01-01T14:52:24;10.60;99.90
58469;DHT22;44257;44.804;10.220;2023-01-01T14:54:52;10.50;99.90
58469;DHT22;44257;44.804;10.220;2023-01-01T14:57:24;10.60;99.90
58469;DHT22;44257;44.804;10.220;2023-01-01T14:59:51;10.50;99.90
58469;DHT22;44257;44.804;10.220;2023-01-01T15:02:23;10.50;99.90
58469;DHT22;44257;44.804;10.220;2023-01-01T15:04:50;10.50;99.90
58469;DHT22;44257;44.804;10.220;2023-01-01T15:07:34;10.50;99.90
58469;DHT22;44257;44.804;10.220;2023-01-01T15:10:00;10.50;99.90
58469;DHT22;44257;44.804;10.220;2023-01-01T15:12:28;10.50;99.90
58469;DHT22;44257;44.804;10.220;2023-01-01T15:14:56;10.40;99.90
58469;DHT22;44257;44.804;10.220;2023-01-01T15:17:24;10.40;99.90
58469;DHT22;44257;44.804;10.220;2023-01-01T15:20:18;10.40;99.90
58469;DHT22;44257;44.804;10.220;2023-01-01T15:22:44;10.40;99.90
58469;DHT22;44257;44.804;10.220;2023-01-01T15:25:14;10.40;99.90
58469;DHT22;44257;44.804;10.220;2023-01-01T15:27:41;10.40;99.90
58469;DHT22;44257;44.804;10.220;2023-01-01T15:30:28;10.30;99.90
58469;DHT22;44257;44.804;10.220;2023-01-01T15:32:55;10.30;99.90
58469;DHT22;44257;44.804;10.220;2023-01-01T15:35:28;10.20;99.90
58469;DHT22;44257;44.804;10.220;2023-01-01T15:37:58;10.20;99.90
58469;DHT22;44257;44.804;10.220;2023-01-01T15:47:48;10.20;99.90
58469;DHT22;44257;44.804;10.220;2023-01-01T15:50:22;10.20;99.90
58469;DHT22;44257;44.804;10.220;2023-01-01T15:52:51;10.20;99.90
58469;DHT22;44257;44.804;10.220;2023-01-01T15:55:20;10.20;99.90
58469;DHT22;44257;44.804;10.220;2023-01-01T15:57:47;10.10;99.90
58469;DHT22;44257;44.804;10.220;2023-01-01T16:00:30;10.10;99.90
58469;DHT22;44257;44.804;10.220;2023-01-01T16:03:19;10.10;99.90
58469;DHT22;44257;44.804;10.220;2023-01-01T16:05:49;10.10;99.90
58469;DHT22;44257;44.804;10.220;2023-01-01T16:08:16;10.10;99.90
58469;DHT22;44257;44.804;10.220;2023-01-01T16:10:44;10.10;99.90
58469;DHT22;44257;44.804;10.220;2023-01-01T16:13:11;10.10;99.90
58469;DHT22;44257;44.804;10.220;2023-01-01T16:15:57;10.10;99.90
58469;DHT22;44257;44.804;10.220;2023-01-01T16:18:29;10.10;99.90
58469;DHT22;44257;44.804;10.220;2023-01-01T16:20:55;10.10;99.90
58469;DHT22;44257;44.804;10.220;2023-01-01T16:23:21;10.10;99.90
58469;DHT22;44257;44.804;10.220;2023-01-01T16:25:47;10.00;99.90
58469;DHT22;44257;44.804;10.220;2023-01-01T16:28:13;10.00;99.90
58469;DHT22;44257;44.804;10.220;2023-01-01T16:30:39;10.00;99.90
58469;DHT22;44257;44.804;10.220;2023-01-01T16:33:15;10.00;99.90
58469;DHT22;44257;44.804;10.220;2023-01-01T16:35:42;9.90;99.90
58469;DHT22;44257;44.804;10.220;2023-01-01T16:38:08;9.90;99.90
58469;DHT22;44257;44.804;10.220;2023-01-01T16:40:35;9.90;99.90
58469;DHT22;44257;44.804;10.220;2023-01-01T16:43:02;9.90;99.90
58469;DHT22;44257;44.804;10.220;2023-01-01T16:45:30;9.90;99.90
58469;DHT22;44257;44.804;10.220;2023-01-01T16:47:56;9.80;99.90
58469;DHT22;44257;44.804;10.220;2023-01-01T16:50:22;9.80;99.90
58469;DHT22;44257;44.804;10.220;2023-01-01T16:52:48;9.80;99.90
58469;DHT22;44257;44.804;10.220;2023-01-01T16:55:14;9.80;99.90
58469;DHT22;44257;44.804;10.220;2023-01-01T16:57:40;9.80;99.90
58469;DHT22;44257;44.804;10.220;2023-01-01T17:00:07;9.80;99.90
58469;DHT22;44257;44.804;10.220;2023-01-01T17:02:33;9.80;99.90
58469;DHT22;44257;44.804;10.220;2023-01-01T17:04:59;9.80;99.90
58469;DHT22;44257;44.804;10.220;2023-01-01T17:07:25;9.80;99.90
58469;DHT22;44257;44.804;10.220;2023-01-01T17:09:51;9.80;99.90
58469;DHT22;44257;44.804;10.220;2023-01-01T17:12:17;9.80;99.90
58469;DHT22;44257;44.804;10.220;2023-01-01T17:14:43;9.80;99.90
58469;DHT22;44257;44.804;10.220;2023-01-01T17:17:09;9.70;99.90
58469;DHT22;44257;44.804;10.220;2023-01-01T17:19:34;9.70;99.90
58469;DHT22;44257;44.804;10.220;2023-01-01T17:22:00;9.80;99.90
58469;DHT22;44257;44.804;10.220;2023-01-01T17:24:29;9.80;99.90
58469;DHT22;44257;44.804;10.220;2023-01-01T17:26:54;9.80;99.90
58469;DHT22;44257;44.804;10.220;2023-01-01T17:29:22;9.80;99.90
58469;DHT22;44257;44.804;10.220;2023-01-01T17:31:48;9.80;99.90
58469;DHT22;44257;44.804;10.220;2023-01-01T17:34:14;9.80;99.90
58469;DHT22;44257;44.804;10.220;2023-01-01T17:36:41;9.80;99.90
58469;DHT22;44257;44.804;10.220;2023-01-01T17:39:10;9.80;99.90
58469;DHT22;44257;44.804;10.220;2023-01-01T17:41:37;9.80;99.90
58469;DHT22;44257;44.804;10.220;2023-01-01T17:44:03;9.80;99.90
58469;DHT22;44257;44.804;10.220;2023-01-01T17:46:29;9.80;99.90
58469;DHT22;44257;44.804;10.220;2023-01-01T17:48:59;9.80;99.90
58469;DHT22;44257;44.804;10.220;2023-01-01T17:51:25;9.80;99.90
58469;DHT22;44257;44.804;10.220;2023-01-01T17:53:52;9.80;99.90
58469;DHT22;44257;44.804;10.220;2023-01-01T17:56:19;9.70;99.90
58469;DHT22;44257;44.804;10.220;2023-01-01T17:58:49;9.80;99.90
58469;DHT22;44257;44.804;10.220;2023-01-01T18:03:53;9.70;99.90
58469;DHT22;44257;44.804;10.220;2023-01-01T18:06:20;9.70;99.90
58469;DHT22;44257;44.804;10.220;2023-01-01T18:08:47;9.70;99.90
58469;DHT22;44257;44.804;10.220;2023-01-01T18:11:13;9.70;99.90
58469;DHT22;44257;44.804;10.220;2023-01-01T18:13:39;9.60;99.90
58469;DHT22;44257;44.804;10.220;2023-01-01T18:16:07;9.70;99.90
58469;DHT22;44257;44.804;10.220;2023-01-01T18:18:37;9.70;99.90
58469;DHT22;44257;44.804;10.220;2023-01-01T18:21:10;9.70;99.90